Terminal Aerodrome Forecast
Issued by NWS

Current Version | Previous Version | Text Only | Print | Product List | Glossary On
Versions: 1 2 3 4 5 6 7 8 9 10 11 12
000
FTUS42 TJSJ 240523
TAFNCM
TAF
TNCM 240523Z 2406/2506 09009KT P6SM FEW020
     FM241300 09012KT P6SM SCT022
     FM242300 09005KT P6SM SCT020=

USA.gov is the U.S. government's official web portal to all federal, state and local government web resources and services.